createdAt,value
2023-03-15T00:03:37.345Z,3.9
2023-03-15T00:09:26.334Z,4.1
2023-03-15T00:15:01.593Z,3.9
2023-03-15T00:20:35.474Z,3.9
2023-03-15T00:26:10.599Z,3.7
2023-03-15T00:31:31.547Z,3.6
2023-03-15T00:37:18.826Z,3.7
2023-03-15T00:42:54.748Z,3.7
2023-03-15T00:48:09.015Z,3.6
2023-03-15T00:53:58.755Z,3.7
2023-03-15T00:59:36.957Z,3.8
2023-03-15T01:05:06.809Z,3.8
2023-03-15T01:10:30.035Z,3.6
2023-03-15T01:16:07.289Z,3.6
2023-03-15T01:21:23.365Z,3.4
2023-03-15T01:27:10.575Z,2.4
2023-03-15T01:32:32.937Z,2.5
2023-03-15T01:38:16.556Z,3.2
2023-03-15T01:43:39.397Z,3.5
2023-03-15T01:49:26.073Z,3.1
2023-03-15T01:54:43.094Z,2.9
2023-03-15T02:00:30.139Z,3
2023-03-15T02:06:03.089Z,2.8
2023-03-15T02:11:30.716Z,2.3
2023-03-15T02:16:51.928Z,2.5
2023-03-15T02:22:26.304Z,2.6
2023-03-15T02:28:05.338Z,2.7
2023-03-15T02:33:36.633Z,2.6
2023-03-15T02:39:22.859Z,2.7
2023-03-15T02:45:02.043Z,2.7
2023-03-15T02:50:10.628Z,2.3
2023-03-15T02:56:07.525Z,2.7
2023-03-15T03:01:15.265Z,2.8
2023-03-15T03:06:55.779Z,2.2
2023-03-15T03:12:26.135Z,1.9
2023-03-15T03:18:17.715Z,1.6
2023-03-15T03:23:38.455Z,1.5
2023-03-15T03:29:03.536Z,1.1
2023-03-15T03:34:35.707Z,1.3
2023-03-15T03:40:04.938Z,1.3
2023-03-15T03:45:45.238Z,1.2
2023-03-15T03:51:32.459Z,1.1
2023-03-15T03:56:55.834Z,1.1
2023-03-15T04:02:40.322Z,-0.3
2023-03-15T04:08:14.332Z,-0.5
2023-03-15T04:13:37.630Z,0
2023-03-15T04:18:59.256Z,0.3
2023-03-15T04:24:26.307Z,0.3
2023-03-15T04:30:24.348Z,0.4
2023-03-15T04:35:44.271Z,-0.3
2023-03-15T04:41:24.945Z,0
2023-03-15T04:46:54.390Z,0.6
2023-03-15T04:52:24.280Z,0.4
2023-03-15T04:57:57.379Z,0.3
2023-03-15T05:03:24.348Z,0
2023-03-15T05:08:52.633Z,0
2023-03-15T05:14:39.851Z,0
2023-03-15T05:20:18.416Z,-0.1
2023-03-15T05:25:37.561Z,-0.2
2023-03-15T05:31:06.008Z,0.1
2023-03-15T05:36:30.540Z,0
2023-03-15T05:42:09.077Z,-0.3
2023-03-15T05:47:35.548Z,0.1
2023-03-15T05:53:18.137Z,0
2023-03-15T05:58:43.466Z,-0.1
2023-03-15T06:10:11.969Z,0.1
2023-03-15T06:15:36.891Z,0.2
2023-03-15T06:21:15.273Z,0.3
2023-03-15T06:26:48.191Z,0.2
2023-03-15T06:32:14.207Z,0.5
2023-03-15T06:37:53.317Z,0.6
2023-03-15T06:43:28.949Z,0.9
2023-03-15T06:48:55.061Z,1.1
2023-03-15T06:54:19.095Z,1.3
2023-03-15T06:59:58.240Z,1.5
2023-03-15T07:05:31.275Z,1.6
2023-03-15T07:10:48.668Z,1.7
2023-03-15T07:16:19.719Z,2.8
2023-03-15T07:22:10.060Z,3.2
2023-03-15T07:27:45.040Z,4.6
2023-03-15T07:33:11.028Z,3.8
2023-03-15T07:38:49.594Z,3
2023-03-15T07:44:10.735Z,3.2
2023-03-15T07:49:37.651Z,3.4
2023-03-15T07:55:21.011Z,3.9
2023-03-15T08:01:04.321Z,3.9
2023-03-15T08:06:37.521Z,3.8
2023-03-15T08:11:53.597Z,4.1
2023-03-15T08:17:44.037Z,4.1
2023-03-15T08:23:11.725Z,4.2
2023-03-15T08:28:35.271Z,4.3
2023-03-15T08:34:22.557Z,4.3
2023-03-15T08:40:00.319Z,5.9
2023-03-15T08:45:16.539Z,5.3
2023-03-15T08:51:01.450Z,5.7
2023-03-15T08:56:29.024Z,5
2023-03-15T09:02:10.244Z,5.6
2023-03-15T09:07:44.310Z,5.7
2023-03-15T09:13:30.880Z,5.9
2023-03-15T09:18:44.217Z,5.5
2023-03-15T09:24:44.462Z,5.6
2023-03-15T09:30:02.165Z,6.3
2023-03-15T09:35:39.831Z,5.8
2023-03-15T09:41:16.246Z,5.8
2023-03-15T09:46:59.089Z,5.9
2023-03-15T09:52:26.191Z,5.7
2023-03-15T09:58:04.477Z,6.1
2023-03-15T10:03:23.059Z,7.2
2023-03-15T10:09:15.297Z,6.6
2023-03-15T10:14:57.459Z,6.7
2023-03-15T10:20:33.582Z,7.1
2023-03-15T10:26:11.690Z,7.5
2023-03-15T10:31:44.747Z,7.2
2023-03-15T10:37:03.455Z,7.6
2023-03-15T10:42:33.366Z,7.7
2023-03-15T10:48:35.680Z,8.6
2023-03-15T10:54:08.051Z,8.4
2023-03-15T10:59:19.483Z,8.2
2023-03-15T11:05:08.531Z,8.1
2023-03-15T11:10:42.399Z,8.3
2023-03-15T11:16:17.893Z,8.4
2023-03-15T11:21:58.067Z,8.1
2023-03-15T11:27:20.927Z,8.9
2023-03-15T11:33:11.010Z,8.8
2023-03-15T11:38:31.885Z,8.2
2023-03-15T11:44:13.013Z,8.6
2023-03-15T11:50:08.340Z,8.9
2023-03-15T11:55:45.339Z,8.5
2023-03-15T12:01:05.617Z,7.9
2023-03-15T12:06:57.737Z,8.9
2023-03-15T12:12:33.290Z,9.6
2023-03-15T12:18:09.728Z,8
2023-03-15T12:23:45.430Z,8.3
2023-03-15T12:29:02.176Z,9.4
2023-03-15T12:34:33.184Z,8.5
2023-03-15T12:40:13.964Z,8
2023-03-15T12:45:47.992Z,7.8
2023-03-15T12:51:44.452Z,8.5
2023-03-15T12:56:58.838Z,8.8
2023-03-15T13:02:46.818Z,8.5
2023-03-15T13:08:37.545Z,9.1
2023-03-15T13:14:10.969Z,8.8
2023-03-15T13:19:50.459Z,9
2023-03-15T13:25:08.176Z,9.3
2023-03-15T13:30:46.122Z,9.8
2023-03-15T13:36:38.594Z,10.2
2023-03-15T13:41:55.986Z,9.5
2023-03-15T13:47:38.801Z,8.8
2023-03-15T13:53:08.074Z,8.6
2023-03-15T13:58:40.167Z,9.4
2023-03-15T14:04:28.769Z,8.6
2023-03-15T14:09:55.893Z,9.1
2023-03-15T14:15:44.041Z,9.1
2023-03-15T14:21:17.286Z,9.4
2023-03-15T14:26:43.252Z,9.2
2023-03-15T14:32:34.091Z,9.6
2023-03-15T14:38:17.689Z,8.9
2023-03-15T14:43:42.486Z,8.6
2023-03-15T14:49:09.300Z,10.2
2023-03-15T14:54:54.724Z,9.6
2023-03-15T15:00:43.476Z,9
2023-03-15T15:05:59.772Z,9.3
2023-03-15T15:11:47.142Z,10.1
2023-03-15T15:17:34.571Z,10.3
2023-03-15T15:22:48.130Z,10.3
2023-03-15T15:28:45.440Z,8.9
2023-03-15T15:34:19.461Z,8.7
2023-03-15T15:39:54.992Z,8.8
2023-03-15T15:50:52.118Z,8.5
2023-03-15T15:56:43.408Z,8.9
2023-03-15T16:02:23.868Z,9.1
2023-03-15T16:07:39.858Z,8
2023-03-15T16:13:37.615Z,8.1
2023-03-15T16:18:58.253Z,8.1
2023-03-15T16:24:26.213Z,8
2023-03-15T16:30:09.611Z,8.1
2023-03-15T16:35:37.800Z,7.9
2023-03-15T16:41:13.914Z,7.8
2023-03-15T16:46:44.384Z,7.5
2023-03-15T16:52:41.646Z,7.5
2023-03-15T16:58:14.731Z,7.1
2023-03-15T17:03:40.300Z,6.9
2023-03-15T17:09:28.956Z,6.9
2023-03-15T17:14:46.446Z,6.6
2023-03-15T17:20:25.934Z,6.8
2023-03-15T17:25:56.522Z,6.6
2023-03-15T17:31:24.818Z,6.2
2023-03-15T17:36:52.926Z,6.3
2023-03-15T17:42:39.399Z,6.1
2023-03-15T17:48:18.410Z,6.2
2023-03-15T17:53:41.439Z,5.7
2023-03-15T17:59:14.779Z,5.3
2023-03-15T18:05:03.652Z,5.1
2023-03-15T18:10:23.397Z,5.3
2023-03-15T18:16:17.850Z,5.7
2023-03-15T18:21:52.951Z,5.7
2023-03-15T18:26:58.978Z,4.9
2023-03-15T18:32:36.103Z,5.4
2023-03-15T18:38:11.322Z,5.5
2023-03-15T18:43:56.526Z,5.5
2023-03-15T18:49:37.844Z,5.5
2023-03-15T18:54:54.648Z,5
2023-03-15T19:00:34.643Z,5.1
2023-03-15T19:06:15.971Z,5.7
2023-03-15T19:11:40.371Z,5.7
2023-03-15T19:17:04.998Z,5.6
2023-03-15T19:22:56.502Z,4.8
2023-03-15T19:28:25.475Z,4.7
2023-03-15T19:33:44.902Z,4.2
2023-03-15T19:39:40.184Z,4.9
2023-03-15T19:44:54.756Z,4.8
2023-03-15T19:50:45.636Z,4.5
2023-03-15T19:56:21.866Z,5.1
2023-03-15T20:01:50.102Z,3.9
2023-03-15T20:07:29.159Z,3.6
2023-03-15T20:12:57.218Z,3.9
2023-03-15T20:18:34.608Z,3.1
2023-03-15T20:23:43.673Z,3.3
2023-03-15T20:29:32.860Z,3.2
2023-03-15T20:35:01.595Z,2.8
2023-03-15T20:40:46.000Z,3
2023-03-15T20:45:57.821Z,3
2023-03-15T20:51:34.756Z,3.3
2023-03-15T20:57:04.161Z,3.6
2023-03-15T21:02:44.761Z,3.5
2023-03-15T21:08:19.563Z,3.7
2023-03-15T21:14:06.046Z,3.4
2023-03-15T21:19:18.026Z,2.9
2023-03-15T21:25:02.917Z,2.8
2023-03-15T21:30:19.948Z,3
2023-03-15T21:36:04.597Z,3
2023-03-15T21:41:48.998Z,3.1
2023-03-15T21:47:11.165Z,2.8
2023-03-15T21:52:30.381Z,2.5
2023-03-15T21:58:25.477Z,2.3
2023-03-15T22:03:57.928Z,2.6
2023-03-15T22:09:34.302Z,2.2
2023-03-15T22:15:06.123Z,2.2
2023-03-15T22:20:31.109Z,2
2023-03-15T22:26:02.136Z,2
2023-03-15T22:31:34.910Z,2.1
2023-03-15T22:37:10.378Z,2.4
2023-03-15T22:42:28.770Z,2.4
2023-03-15T22:48:07.271Z,2
2023-03-15T22:53:36.839Z,1.7
2023-03-15T22:59:24.851Z,1.7
2023-03-15T23:04:38.711Z,1.4
2023-03-15T23:10:21.910Z,1.5
2023-03-15T23:15:55.969Z,1.9
2023-03-15T23:21:19.470Z,1.9
2023-03-15T23:27:01.259Z,1.9
2023-03-15T23:32:40.458Z,2.1
2023-03-15T23:38:06.053Z,2.1
2023-03-15T23:43:52.734Z,1.9
2023-03-15T23:49:12.286Z,1.6
2023-03-15T23:54:56.236Z,1.9
